createdAt,value
2022-12-17T00:01:47.778Z,31.76
2022-12-17T00:04:32.780Z,31.85
2022-12-17T00:07:17.715Z,31.86
2022-12-17T00:10:02.539Z,31.82
2022-12-17T00:12:47.577Z,31.78
2022-12-17T00:15:32.535Z,31.84
2022-12-17T00:18:21.968Z,31.67
2022-12-17T00:21:19.560Z,31.75
2022-12-17T00:24:05.765Z,31.92
2022-12-17T00:26:51.084Z,31.83
2022-12-17T00:29:36.916Z,31.85
2022-12-17T00:32:23.353Z,31.75
2022-12-17T00:35:08.305Z,31.75
2022-12-17T00:37:53.262Z,31.89
2022-12-17T00:40:38.137Z,31.86
2022-12-17T00:43:31.084Z,31.81
2022-12-17T00:46:16.528Z,31.76
2022-12-17T00:49:02.450Z,31.74
2022-12-17T00:51:48.861Z,31.84
2022-12-17T00:54:33.687Z,31.75
2022-12-17T00:57:19.026Z,31.78
2022-12-17T01:00:03.677Z,31.72
2022-12-17T01:02:48.687Z,31.77
2022-12-17T01:05:34.055Z,31.72
2022-12-17T01:08:27.044Z,31.77
2022-12-17T01:11:17.773Z,31.83
2022-12-17T01:14:02.841Z,31.92
2022-12-17T01:16:48.359Z,31.76
2022-12-17T01:19:33.532Z,31.68
2022-12-17T01:22:18.405Z,31.84
2022-12-17T01:25:03.248Z,31.76
2022-12-17T01:27:48.499Z,31.78
2022-12-17T01:30:33.881Z,31.67
2022-12-17T01:33:23.937Z,31.72
2022-12-17T01:36:09.291Z,31.80
2022-12-17T01:38:54.157Z,31.71
2022-12-17T01:41:39.010Z,31.77
2022-12-17T01:44:58.382Z,31.81
2022-12-17T01:47:46.226Z,31.74
2022-12-17T01:50:33.415Z,31.62
2022-12-17T01:53:21.208Z,31.78
2022-12-17T01:56:07.692Z,31.77
2022-12-17T01:58:54.585Z,31.71
2022-12-17T02:01:40.334Z,31.78
2022-12-17T02:04:27.391Z,31.73
2022-12-17T02:07:46.683Z,31.64
2022-12-17T02:10:41.566Z,32.07
2022-12-17T02:13:33.341Z,31.87
2022-12-17T02:16:32.774Z,31.87
2022-12-17T02:19:35.267Z,31.95
2022-12-17T02:22:32.671Z,31.64
2022-12-17T02:25:38.759Z,31.80
2022-12-17T02:28:24.197Z,31.76
2022-12-17T02:31:09.591Z,31.68
2022-12-17T02:33:55.155Z,31.79
2022-12-17T02:36:39.848Z,31.75
2022-12-17T02:39:25.415Z,31.70
2022-12-17T02:42:14.941Z,31.80
2022-12-17T02:45:01.233Z,31.62
2022-12-17T02:47:47.630Z,31.80
2022-12-17T02:50:33.479Z,31.81
2022-12-17T02:53:20.848Z,31.81
2022-12-17T02:56:06.230Z,31.79
2022-12-17T02:58:51.683Z,31.73
2022-12-17T03:01:36.563Z,31.76
2022-12-17T03:04:21.820Z,31.84
2022-12-17T03:07:07.260Z,31.77
2022-12-17T03:09:52.315Z,31.74
2022-12-17T03:12:37.716Z,31.85
2022-12-17T03:15:23.190Z,31.78
2022-12-17T03:18:08.659Z,31.77
2022-12-17T03:20:53.461Z,31.80
2022-12-17T03:23:38.975Z,31.74
2022-12-17T03:26:24.485Z,31.76
2022-12-17T03:29:09.219Z,31.82
2022-12-17T03:31:53.798Z,31.81
2022-12-17T03:34:39.237Z,31.81
2022-12-17T03:37:25.477Z,31.73
2022-12-17T03:40:10.739Z,31.76
2022-12-17T03:42:55.764Z,31.74
2022-12-17T03:45:40.513Z,31.65
2022-12-17T03:48:31.842Z,31.74
2022-12-17T03:51:17.841Z,31.76
2022-12-17T03:54:03.142Z,31.79
2022-12-17T03:56:48.523Z,31.77
2022-12-17T03:59:33.688Z,31.71
2022-12-17T04:02:19.053Z,31.77
2022-12-17T04:05:04.580Z,31.78
2022-12-17T04:07:49.835Z,31.82
2022-12-17T04:10:35.284Z,31.74
2022-12-17T04:13:20.259Z,31.72
2022-12-17T04:16:05.070Z,31.64
2022-12-17T04:18:49.893Z,31.67
2022-12-17T04:21:34.751Z,31.63
2022-12-17T04:24:19.633Z,31.56
2022-12-17T04:27:04.588Z,31.49
2022-12-17T04:29:50.013Z,31.70
2022-12-17T04:32:35.488Z,31.64
2022-12-17T04:35:20.427Z,31.67
2022-12-17T04:38:06.013Z,31.61
2022-12-17T04:40:51.233Z,31.60
2022-12-17T04:43:36.496Z,31.69
2022-12-17T04:46:21.705Z,31.57
2022-12-17T04:49:06.900Z,31.65
2022-12-17T04:51:51.830Z,31.74
2022-12-17T04:54:36.877Z,31.65
2022-12-17T04:57:22.368Z,31.62
2022-12-17T05:00:07.423Z,31.63
2022-12-17T05:02:52.487Z,31.71
2022-12-17T05:05:37.769Z,31.63
2022-12-17T05:08:23.085Z,31.67
2022-12-17T05:11:07.929Z,31.55
2022-12-17T05:13:52.795Z,31.60
2022-12-17T05:16:37.713Z,31.90
2022-12-17T05:19:22.715Z,31.61
2022-12-17T05:22:07.793Z,31.54
2022-12-17T05:24:52.562Z,31.56
2022-12-17T05:27:37.697Z,31.66
2022-12-17T05:30:23.023Z,31.66
2022-12-17T05:33:17.389Z,31.65
2022-12-17T05:36:02.221Z,31.59
2022-12-17T05:38:47.509Z,31.69
2022-12-17T05:41:32.268Z,31.52
2022-12-17T05:44:17.510Z,31.61
2022-12-17T05:47:02.289Z,31.56
2022-12-17T05:49:47.556Z,31.62
2022-12-17T05:52:32.371Z,31.63
2022-12-17T05:55:17.493Z,31.44
2022-12-17T05:58:02.281Z,31.48
2022-12-17T06:00:47.171Z,31.52
2022-12-17T06:03:32.190Z,31.59
2022-12-17T06:06:17.243Z,31.62
2022-12-17T06:09:02.065Z,31.49
2022-12-17T06:11:46.850Z,31.61
2022-12-17T06:14:32.591Z,31.51
2022-12-17T06:17:17.502Z,31.50
2022-12-17T06:20:02.279Z,31.51
2022-12-17T06:22:47.140Z,31.57
2022-12-17T06:25:32.459Z,31.51
2022-12-17T06:28:19.370Z,31.45
2022-12-17T06:31:11.598Z,31.37
2022-12-17T06:33:57.378Z,31.53
2022-12-17T06:36:42.598Z,31.64
2022-12-17T06:39:28.061Z,31.45
2022-12-17T06:42:13.646Z,31.54
2022-12-17T06:44:59.015Z,31.53
2022-12-17T06:47:43.883Z,31.33
2022-12-17T06:50:28.923Z,31.57
2022-12-17T06:53:25.664Z,31.59
2022-12-17T06:56:11.290Z,31.35
2022-12-17T06:58:56.499Z,31.51
2022-12-17T07:01:41.621Z,31.39
2022-12-17T07:04:26.976Z,31.33
2022-12-17T07:07:11.826Z,31.47
2022-12-17T07:09:57.197Z,31.43
2022-12-17T07:12:42.637Z,31.49
2022-12-17T07:15:28.088Z,31.41
2022-12-17T07:18:21.588Z,31.33
2022-12-17T07:21:07.833Z,31.40
2022-12-17T07:23:52.636Z,31.42
2022-12-17T07:26:37.621Z,31.28
2022-12-17T07:29:22.535Z,31.37
2022-12-17T07:32:07.639Z,31.46
2022-12-17T07:34:52.813Z,31.33
2022-12-17T07:37:37.888Z,31.32
2022-12-17T07:40:23.502Z,31.45
2022-12-17T07:43:08.274Z,31.42
2022-12-17T07:45:53.215Z,31.29
2022-12-17T07:48:38.259Z,31.52
2022-12-17T07:51:23.547Z,31.39
2022-12-17T07:54:08.347Z,31.44
2022-12-17T07:56:53.219Z,31.35
2022-12-17T07:59:38.218Z,31.37
2022-12-17T08:02:23.182Z,31.33
2022-12-17T08:05:08.589Z,31.43
2022-12-17T08:07:53.365Z,31.41
2022-12-17T08:10:39.224Z,31.24
2022-12-17T08:13:24.422Z,31.32
2022-12-17T08:16:12.267Z,31.32
2022-12-17T08:18:57.958Z,31.39
2022-12-17T08:21:43.228Z,31.35
2022-12-17T08:24:28.682Z,31.21
2022-12-17T08:27:13.919Z,31.29
2022-12-17T08:29:58.721Z,31.38
2022-12-17T08:32:44.092Z,31.30
2022-12-17T08:35:28.889Z,31.30
2022-12-17T08:38:20.505Z,31.18
2022-12-17T08:41:05.237Z,31.17
2022-12-17T08:43:49.931Z,31.22
2022-12-17T08:46:35.228Z,31.12
2022-12-17T08:49:20.345Z,31.18
2022-12-17T08:52:05.173Z,31.14
2022-12-17T08:54:50.090Z,31.19
2022-12-17T08:57:35.048Z,31.13
2022-12-17T09:00:20.538Z,31.10
2022-12-17T09:03:05.309Z,31.15
2022-12-17T09:05:50.564Z,31.11
2022-12-17T09:08:35.345Z,31.21
2022-12-17T09:11:20.165Z,31.17
2022-12-17T09:14:04.861Z,31.23
2022-12-17T09:16:49.779Z,31.22
2022-12-17T09:19:34.894Z,31.09
2022-12-17T09:22:19.743Z,31.14
2022-12-17T09:25:04.690Z,31.09
2022-12-17T09:27:49.932Z,31.08
2022-12-17T09:30:35.091Z,31.13
2022-12-17T09:33:20.074Z,31.27
2022-12-17T09:36:04.983Z,31.20
2022-12-17T09:38:50.671Z,30.99
2022-12-17T09:41:47.432Z,31.10
2022-12-17T09:44:55.083Z,31.08
2022-12-17T09:48:01.109Z,31.19
2022-12-17T09:50:46.467Z,31.00
2022-12-17T09:53:50.653Z,31.14
2022-12-17T09:56:40.307Z,30.93
2022-12-17T09:59:25.141Z,31.01
2022-12-17T10:02:10.489Z,31.00
2022-12-17T10:05:02.938Z,31.07
2022-12-17T10:07:54.474Z,30.93
2022-12-17T10:10:45.881Z,31.10
2022-12-17T10:13:36.807Z,31.15
2022-12-17T10:16:46.897Z,31.06
2022-12-17T10:19:47.900Z,31.11
2022-12-17T10:22:39.019Z,31.21
2022-12-17T10:25:35.055Z,31.13
2022-12-17T10:28:24.834Z,31.08
2022-12-17T10:31:10.113Z,31.14
2022-12-17T10:33:58.076Z,31.11
2022-12-17T10:36:45.303Z,30.95
2022-12-17T10:39:43.079Z,31.04
2022-12-17T10:42:48.975Z,31.08
2022-12-17T10:45:50.892Z,31.08
2022-12-17T10:48:49.324Z,31.02
2022-12-17T10:51:58.230Z,31.00
2022-12-17T10:54:50.396Z,30.92
2022-12-17T10:57:57.761Z,30.94
2022-12-17T11:00:50.768Z,30.93
2022-12-17T11:03:57.617Z,31.01
2022-12-17T11:06:52.742Z,30.99
2022-12-17T11:10:09.058Z,30.88
2022-12-17T11:13:05.824Z,30.94
2022-12-17T11:15:58.776Z,30.72
2022-12-17T11:19:13.382Z,30.78
2022-12-17T11:22:02.318Z,30.79
2022-12-17T11:24:56.405Z,30.89
2022-12-17T11:28:03.042Z,30.77
2022-12-17T11:30:48.480Z,30.93
2022-12-17T11:33:47.314Z,30.88
2022-12-17T11:37:04.283Z,30.92
2022-12-17T11:40:01.244Z,30.86
2022-12-17T11:42:59.039Z,30.91
2022-12-17T11:45:52.770Z,30.85
2022-12-17T11:49:05.899Z,30.87
2022-12-17T11:52:09.039Z,30.82
2022-12-17T11:55:20.290Z,30.76
2022-12-17T11:58:48.245Z,30.93
2022-12-17T12:01:56.949Z,30.98
2022-12-17T12:04:57.291Z,30.88
2022-12-17T12:08:01.236Z,30.88
2022-12-17T12:11:15.907Z,30.90
2022-12-17T12:14:22.788Z,30.87
2022-12-17T12:17:28.464Z,30.84
2022-12-17T12:20:31.909Z,30.97
2022-12-17T12:23:27.939Z,30.86
2022-12-17T12:26:24.071Z,30.92
2022-12-17T12:29:18.226Z,30.94
2022-12-17T12:32:10.709Z,30.84
2022-12-17T12:34:57.116Z,30.75
2022-12-17T12:37:42.784Z,30.89
2022-12-17T12:40:40.845Z,30.94
2022-12-17T12:43:42.719Z,31.03
2022-12-17T12:46:32.960Z,30.88
2022-12-17T12:49:30.219Z,30.89
2022-12-17T12:52:18.525Z,30.94
2022-12-17T12:55:03.480Z,30.88
2022-12-17T12:57:52.885Z,30.96
2022-12-17T13:00:48.477Z,30.93
2022-12-17T13:03:43.733Z,30.97
2022-12-17T13:06:12.185Z,30.91
2022-12-17T13:08:40.169Z,31.01
2022-12-17T13:11:29.460Z,31.02
2022-12-17T13:14:05.146Z,30.80
2022-12-17T13:16:54.757Z,30.99
2022-12-17T13:19:42.119Z,30.89
2022-12-17T13:22:20.072Z,30.92
2022-12-17T13:24:52.304Z,30.88
2022-12-17T13:27:34.017Z,31.01
2022-12-17T13:30:22.366Z,30.88
2022-12-17T13:33:13.722Z,30.82
2022-12-17T13:35:58.865Z,30.88
2022-12-17T13:38:59.992Z,30.86
2022-12-17T13:41:31.613Z,30.83
2022-12-17T13:44:04.279Z,30.89
2022-12-17T13:46:46.681Z,30.93
2022-12-17T13:49:20.346Z,30.89
2022-12-17T13:51:47.766Z,30.94
2022-12-17T13:54:19.430Z,30.82
2022-12-17T13:56:46.351Z,30.88
2022-12-17T13:59:31.183Z,30.95
2022-12-17T14:01:57.958Z,30.92
2022-12-17T14:04:27.041Z,30.84
2022-12-17T14:06:56.227Z,30.81
2022-12-17T14:09:27.167Z,30.78
2022-12-17T14:12:12.301Z,30.77
2022-12-17T14:14:42.988Z,30.81
2022-12-17T14:17:20.255Z,30.78
2022-12-17T14:19:48.269Z,30.68
2022-12-17T14:22:39.014Z,30.87
2022-12-17T14:25:13.219Z,30.70
2022-12-17T14:27:41.450Z,30.71
2022-12-17T14:30:22.831Z,30.70
2022-12-17T14:32:49.345Z,30.81
2022-12-17T14:35:39.243Z,30.77
2022-12-17T14:38:05.785Z,30.88
2022-12-17T14:40:32.399Z,30.65
2022-12-17T14:43:00.555Z,30.62
2022-12-17T14:45:28.978Z,30.65
2022-12-17T14:48:01.337Z,30.62
2022-12-17T14:50:34.405Z,30.67
2022-12-17T14:53:03.583Z,30.73
2022-12-17T14:55:57.947Z,30.61
2022-12-17T14:58:26.425Z,30.69
2022-12-17T15:01:04.854Z,30.65
2022-12-17T15:03:33.918Z,30.75
2022-12-17T15:06:06.593Z,30.80
2022-12-17T15:08:53.194Z,30.93
2022-12-17T15:11:22.975Z,30.93
2022-12-17T15:13:55.885Z,30.85
2022-12-17T15:16:23.204Z,30.99
2022-12-17T15:18:49.805Z,30.86
2022-12-17T15:21:18.353Z,30.82
2022-12-17T15:23:46.712Z,31.09
2022-12-17T15:26:15.127Z,30.88
2022-12-17T15:28:42.906Z,30.71
2022-12-17T15:31:12.572Z,30.73
2022-12-17T15:33:39.979Z,30.88
2022-12-17T15:36:07.217Z,30.94
2022-12-17T15:38:33.914Z,30.63
2022-12-17T15:41:21.956Z,30.75
2022-12-17T15:43:49.573Z,30.76
2022-12-17T15:46:16.330Z,30.64
2022-12-17T15:48:48.214Z,30.75
2022-12-17T15:51:19.763Z,30.79
2022-12-17T15:53:47.825Z,30.76
2022-12-17T15:56:23.444Z,30.81
2022-12-17T15:58:50.470Z,30.74
2022-12-17T16:01:18.451Z,30.58
2022-12-17T16:03:45.771Z,30.86
2022-12-17T16:06:12.620Z,30.83
2022-12-17T16:08:40.384Z,30.89
2022-12-17T16:11:12.011Z,30.89
2022-12-17T16:13:39.697Z,30.95
2022-12-17T16:16:07.289Z,30.90
2022-12-17T16:18:33.974Z,30.83
2022-12-17T16:21:05.558Z,30.82
2022-12-17T16:23:32.389Z,30.72
2022-12-17T16:26:01.577Z,30.87
2022-12-17T16:28:29.402Z,30.69
2022-12-17T16:31:04.249Z,30.84
2022-12-17T16:33:35.976Z,30.83
2022-12-17T16:36:04.305Z,30.97
2022-12-17T16:38:31.147Z,30.90
2022-12-17T16:40:59.666Z,30.80
2022-12-17T16:43:27.863Z,30.89
2022-12-17T16:45:54.717Z,30.78
2022-12-17T16:48:22.517Z,30.68
2022-12-17T16:50:50.286Z,30.82
2022-12-17T16:53:18.533Z,30.79
2022-12-17T16:55:46.871Z,30.81
2022-12-17T16:58:17.709Z,30.77
2022-12-17T17:00:45.630Z,30.73
2022-12-17T17:03:12.233Z,30.74
2022-12-17T17:05:39.659Z,30.73
2022-12-17T17:08:07.158Z,30.69
2022-12-17T17:10:36.128Z,30.70
2022-12-17T17:13:03.226Z,30.77
2022-12-17T17:15:29.770Z,30.72
2022-12-17T17:18:01.410Z,30.73
2022-12-17T17:20:32.273Z,30.62
2022-12-17T17:22:59.647Z,30.70
2022-12-17T17:25:34.684Z,30.56
2022-12-17T17:28:12.634Z,30.62
2022-12-17T17:30:39.083Z,30.74
2022-12-17T17:33:05.697Z,30.75
2022-12-17T17:35:32.238Z,30.82
2022-12-17T17:37:58.736Z,30.71
2022-12-17T17:40:25.207Z,30.69
2022-12-17T17:42:52.949Z,30.62
2022-12-17T17:45:19.878Z,30.70
2022-12-17T17:47:46.328Z,30.69
2022-12-17T17:50:12.792Z,30.71
2022-12-17T17:52:39.370Z,30.72
2022-12-17T17:55:06.450Z,30.68
2022-12-17T17:57:32.971Z,30.59
2022-12-17T17:59:59.461Z,30.56
2022-12-17T18:02:26.386Z,30.60
2022-12-17T18:04:53.032Z,30.53
2022-12-17T18:07:27.927Z,30.72
2022-12-17T18:09:55.521Z,30.65
2022-12-17T18:12:41.752Z,30.77
2022-12-17T18:15:17.752Z,30.61
2022-12-17T18:17:46.677Z,30.69
2022-12-17T18:20:13.838Z,30.54
2022-12-17T18:22:40.545Z,30.68
2022-12-17T18:25:07.270Z,30.66
2022-12-17T18:27:33.777Z,30.68
2022-12-17T18:30:00.303Z,30.72
2022-12-17T18:32:26.808Z,30.65
2022-12-17T18:34:53.358Z,30.70
2022-12-17T18:37:19.913Z,30.61
2022-12-17T18:39:46.521Z,30.53
2022-12-17T18:42:31.595Z,30.63
2022-12-17T18:44:58.093Z,30.57
2022-12-17T18:47:25.443Z,30.56
2022-12-17T18:49:52.067Z,30.47
2022-12-17T18:52:18.544Z,30.39
2022-12-17T18:54:45.372Z,30.62
2022-12-17T18:57:12.238Z,30.53
2022-12-17T18:59:40.913Z,30.50
2022-12-17T19:02:11.515Z,30.55
2022-12-17T19:04:38.089Z,30.55
2022-12-17T19:07:05.121Z,30.69
2022-12-17T19:09:36.078Z,30.45
2022-12-17T19:12:05.652Z,30.55
2022-12-17T19:14:32.456Z,30.53
2022-12-17T19:16:59.392Z,30.50
2022-12-17T19:19:26.260Z,30.44
2022-12-17T19:21:56.902Z,30.46
2022-12-17T19:24:23.867Z,30.47
2022-12-17T19:26:50.957Z,30.32
2022-12-17T19:29:19.151Z,30.42
2022-12-17T19:31:46.119Z,30.33
2022-12-17T19:34:15.047Z,30.34
2022-12-17T19:36:42.958Z,30.55
2022-12-17T19:39:13.644Z,30.39
2022-12-17T19:41:40.177Z,30.47
2022-12-17T19:44:10.807Z,30.46
2022-12-17T19:46:37.206Z,30.45
2022-12-17T19:49:04.419Z,30.48
2022-12-17T19:51:32.212Z,30.45
2022-12-17T19:54:04.749Z,30.45
2022-12-17T19:56:34.953Z,30.26
2022-12-17T19:59:04.236Z,30.51
2022-12-17T20:01:33.116Z,30.48
2022-12-17T20:04:00.285Z,30.56
2022-12-17T20:06:29.799Z,30.57
2022-12-17T20:08:58.473Z,30.44
2022-12-17T20:11:34.958Z,30.57
2022-12-17T20:14:07.699Z,30.67
2022-12-17T20:16:39.195Z,30.50
2022-12-17T20:19:07.681Z,30.47
2022-12-17T20:21:34.621Z,30.47
2022-12-17T20:24:01.140Z,30.37
2022-12-17T20:26:27.678Z,30.40
2022-12-17T20:28:55.089Z,30.44
2022-12-17T20:31:21.756Z,30.36
2022-12-17T20:33:48.438Z,30.46
2022-12-17T20:36:17.749Z,30.42
2022-12-17T20:38:44.797Z,30.46
2022-12-17T20:41:15.429Z,30.50
2022-12-17T20:43:42.105Z,30.46
2022-12-17T20:46:10.060Z,30.52
2022-12-17T20:48:39.071Z,30.40
2022-12-17T20:51:32.151Z,30.41
2022-12-17T20:54:00.966Z,30.41
2022-12-17T20:56:31.340Z,30.72
2022-12-17T20:59:02.271Z,30.44
2022-12-17T21:01:31.852Z,30.50
2022-12-17T21:03:59.469Z,30.43
2022-12-17T21:06:32.482Z,30.33
2022-12-17T21:08:59.329Z,30.25
2022-12-17T21:11:29.170Z,30.45
2022-12-17T21:13:56.683Z,30.41
2022-12-17T21:16:28.979Z,30.43
2022-12-17T21:18:56.978Z,30.39
2022-12-17T21:21:25.911Z,30.44
2022-12-17T21:23:52.935Z,30.41
2022-12-17T21:26:37.853Z,30.47
2022-12-17T21:29:06.142Z,30.40
2022-12-17T21:31:40.380Z,30.34
2022-12-17T21:34:11.506Z,30.27
2022-12-17T21:36:38.278Z,30.44
2022-12-17T21:39:09.238Z,30.43
2022-12-17T21:41:38.174Z,30.56
2022-12-17T21:44:08.468Z,30.42
2022-12-17T21:46:35.452Z,30.51
2022-12-17T21:49:04.255Z,30.56
2022-12-17T21:51:32.073Z,30.44
2022-12-17T21:54:02.786Z,30.46
2022-12-17T21:56:35.803Z,30.38
2022-12-17T21:59:02.493Z,30.36
2022-12-17T22:01:33.164Z,30.50
2022-12-17T22:04:04.209Z,30.25
2022-12-17T22:06:36.365Z,30.51
2022-12-17T22:09:16.461Z,30.41
2022-12-17T22:12:09.796Z,30.47
2022-12-17T22:14:36.360Z,30.40
2022-12-17T22:17:02.915Z,30.31
2022-12-17T22:19:29.364Z,30.33
2022-12-17T22:21:58.051Z,30.40
2022-12-17T22:24:25.415Z,30.38
2022-12-17T22:26:59.472Z,30.52
2022-12-17T22:29:46.702Z,30.39
2022-12-17T22:32:32.513Z,30.37
2022-12-17T22:36:04.163Z,30.41
2022-12-17T22:41:39.029Z,30.37
2022-12-17T22:44:28.974Z,30.39
2022-12-17T22:44:44.343Z,30.43
2022-12-17T22:46:19.490Z,30.55
2022-12-17T22:48:46.498Z,30.46
2022-12-17T22:51:20.563Z,30.45
2022-12-17T22:53:53.880Z,30.38
2022-12-17T22:56:31.351Z,30.44
2022-12-17T22:59:08.553Z,30.28
2022-12-17T23:01:35.483Z,30.34
2022-12-17T23:04:03.635Z,30.35
2022-12-17T23:06:30.412Z,30.27
2022-12-17T23:08:57.646Z,30.35
2022-12-17T23:11:25.864Z,30.30
2022-12-17T23:13:53.779Z,30.23
2022-12-17T23:16:20.398Z,30.38
2022-12-17T23:18:48.497Z,30.36
2022-12-17T23:21:24.430Z,30.43
2022-12-17T23:23:55.421Z,30.40
2022-12-17T23:26:31.242Z,30.33
2022-12-17T23:29:00.240Z,30.46
2022-12-17T23:31:29.204Z,30.36
2022-12-17T23:33:56.113Z,30.40
2022-12-17T23:36:24.547Z,30.49
2022-12-17T23:38:52.201Z,30.19
2022-12-17T23:41:24.418Z,30.31
2022-12-17T23:43:51.059Z,30.39
2022-12-17T23:46:19.425Z,30.33
2022-12-17T23:48:47.606Z,30.29
2022-12-17T23:51:17.173Z,30.38
2022-12-17T23:53:43.924Z,30.45
2022-12-17T23:56:12.723Z,30.39
2022-12-17T23:58:41.217Z,30.34
